sensor_id;sensor_type;location;lat;lon;timestamp;pressure;altitude;pressure_sealevel;temperature;humidity
20930;BME280;21895;47.072;15.132;2022-10-31T00:01:26;97290.00;;;9.76;77.51
20930;BME280;21895;47.072;15.132;2022-10-31T00:03:53;97283.00;;;9.63;78.12
20930;BME280;21895;47.072;15.132;2022-10-31T00:06:21;97291.00;;;9.56;78.62
20930;BME280;21895;47.072;15.132;2022-10-31T00:08:53;97288.00;;;9.53;78.66
20930;BME280;21895;47.072;15.132;2022-10-31T00:11:21;97282.00;;;9.62;78.93
20930;BME280;21895;47.072;15.132;2022-10-31T00:13:47;97287.00;;;9.59;78.48
20930;BME280;21895;47.072;15.132;2022-10-31T00:16:20;97284.00;;;9.52;78.43
20930;BME280;21895;47.072;15.132;2022-10-31T00:19:07;97286.00;;;9.48;78.38
20930;BME280;21895;47.072;15.132;2022-10-31T00:21:35;97286.00;;;9.38;78.80
20930;BME280;21895;47.072;15.132;2022-10-31T00:24:02;97285.00;;;9.49;78.96
20930;BME280;21895;47.072;15.132;2022-10-31T00:26:30;97281.00;;;9.48;77.75
20930;BME280;21895;47.072;15.132;2022-10-31T00:28:58;97288.00;;;9.36;77.81
20930;BME280;21895;47.072;15.132;2022-10-31T00:31:25;97276.00;;;9.27;78.68
20930;BME280;21895;47.072;15.132;2022-10-31T00:33:51;97280.00;;;9.35;79.03
20930;BME280;21895;47.072;15.132;2022-10-31T00:36:19;97280.00;;;9.45;79.18
20930;BME280;21895;47.072;15.132;2022-10-31T00:38:47;97279.00;;;9.49;80.26
20930;BME280;21895;47.072;15.132;2022-10-31T00:41:17;97277.00;;;9.46;79.02
20930;BME280;21895;47.072;15.132;2022-10-31T00:43:44;97282.00;;;9.36;77.87
20930;BME280;21895;47.072;15.132;2022-10-31T00:46:12;97278.00;;;9.26;78.22
20930;BME280;21895;47.072;15.132;2022-10-31T00:48:39;97276.00;;;9.16;77.87
20930;BME280;21895;47.072;15.132;2022-10-31T00:51:06;97281.00;;;9.05;77.72
20930;BME280;21895;47.072;15.132;2022-10-31T00:53:32;97276.00;;;9.10;77.99
20930;BME280;21895;47.072;15.132;2022-10-31T00:55:59;97268.00;;;9.07;78.36
20930;BME280;21895;47.072;15.132;2022-10-31T00:58:26;97272.00;;;9.06;78.69
20930;BME280;21895;47.072;15.132;2022-10-31T01:00:52;97262.00;;;9.10;78.70
20930;BME280;21895;47.072;15.132;2022-10-31T01:03:24;97266.00;;;9.14;78.65
20930;BME280;21895;47.072;15.132;2022-10-31T01:06:07;97259.00;;;9.03;78.29
20930;BME280;21895;47.072;15.132;2022-10-31T01:08:35;97271.00;;;9.09;78.26
20930;BME280;21895;47.072;15.132;2022-10-31T01:11:19;97264.00;;;9.08;77.56
20930;BME280;21895;47.072;15.132;2022-10-31T01:13:47;97270.00;;;9.05;77.52
20930;BME280;21895;47.072;15.132;2022-10-31T01:16:18;97261.00;;;9.03;78.26
20930;BME280;21895;47.072;15.132;2022-10-31T01:18:45;97265.00;;;8.94;78.24
20930;BME280;21895;47.072;15.132;2022-10-31T01:21:17;97255.00;;;9.01;78.12
20930;BME280;21895;47.072;15.132;2022-10-31T01:23:43;97257.00;;;8.98;78.31
20930;BME280;21895;47.072;15.132;2022-10-31T01:26:17;97260.00;;;8.95;77.75
20930;BME280;21895;47.072;15.132;2022-10-31T01:29:06;97258.00;;;8.90;78.03
20930;BME280;21895;47.072;15.132;2022-10-31T01:31:37;97254.00;;;9.08;79.67
20930;BME280;21895;47.072;15.132;2022-10-31T01:34:04;97252.00;;;9.16;80.73
20930;BME280;21895;47.072;15.132;2022-10-31T01:36:34;97250.00;;;9.09;80.50
20930;BME280;21895;47.072;15.132;2022-10-31T01:39:10;97241.00;;;9.13;80.87
20930;BME280;21895;47.072;15.132;2022-10-31T01:41:42;97240.00;;;9.08;78.84
20930;BME280;21895;47.072;15.132;2022-10-31T01:45:31;97240.00;;;9.06;77.91
20930;BME280;21895;47.072;15.132;2022-10-31T01:47:57;97251.00;;;8.83;79.02
20930;BME280;21895;47.072;15.132;2022-10-31T01:50:37;97241.00;;;8.87;80.30
20930;BME280;21895;47.072;15.132;2022-10-31T01:53:07;97238.00;;;8.92;79.26
20930;BME280;21895;47.072;15.132;2022-10-31T01:55:39;97238.00;;;8.85;79.19
20930;BME280;21895;47.072;15.132;2022-10-31T01:58:16;97238.00;;;8.87;79.54
20930;BME280;21895;47.072;15.132;2022-10-31T02:00:50;97228.00;;;8.91;78.69
20930;BME280;21895;47.072;15.132;2022-10-31T02:03:20;97234.00;;;8.90;78.54
20930;BME280;21895;47.072;15.132;2022-10-31T02:05:48;97217.00;;;8.85;78.36
20930;BME280;21895;47.072;15.132;2022-10-31T02:08:30;97224.00;;;8.85;78.82
20930;BME280;21895;47.072;15.132;2022-10-31T02:10:59;97222.00;;;8.83;78.73
20930;BME280;21895;47.072;15.132;2022-10-31T02:13:28;97221.00;;;8.81;79.69
20930;BME280;21895;47.072;15.132;2022-10-31T02:15:58;97212.00;;;8.79;79.08
20930;BME280;21895;47.072;15.132;2022-10-31T02:18:28;97221.00;;;8.71;80.12
20930;BME280;21895;47.072;15.132;2022-10-31T02:21:19;97219.00;;;8.77;79.91
20930;BME280;21895;47.072;15.132;2022-10-31T02:27:22;97212.00;;;8.97;80.90
20930;BME280;21895;47.072;15.132;2022-10-31T02:30:33;97216.00;;;8.81;79.33
20930;BME280;21895;47.072;15.132;2022-10-31T02:33:23;97205.00;;;8.65;79.19
20930;BME280;21895;47.072;15.132;2022-10-31T02:36:26;97203.00;;;8.83;79.10
20930;BME280;21895;47.072;15.132;2022-10-31T02:42:25;97205.00;;;8.59;81.29
20930;BME280;21895;47.072;15.132;2022-10-31T02:45:21;97210.00;;;8.63;79.56
20930;BME280;21895;47.072;15.132;2022-10-31T02:47:53;97215.00;;;8.57;79.25
20930;BME280;21895;47.072;15.132;2022-10-31T02:50:35;97207.00;;;8.58;79.28
20930;BME280;21895;47.072;15.132;2022-10-31T02:53:04;97205.00;;;8.48;79.12
20930;BME280;21895;47.072;15.132;2022-10-31T02:55:56;97206.00;;;8.42;80.56
20930;BME280;21895;47.072;15.132;2022-10-31T02:58:29;97207.00;;;8.43;80.60
20930;BME280;21895;47.072;15.132;2022-10-31T03:08:56;97206.00;;;8.49;79.80
20930;BME280;21895;47.072;15.132;2022-10-31T03:13:08;97211.00;;;8.58;79.04
20930;BME280;21895;47.072;15.132;2022-10-31T03:15:43;97204.00;;;8.54;80.03
20930;BME280;21895;47.072;15.132;2022-10-31T03:18:28;97203.00;;;8.67;79.17
20930;BME280;21895;47.072;15.132;2022-10-31T03:21:07;97206.00;;;8.62;77.50
20930;BME280;21895;47.072;15.132;2022-10-31T03:23:37;97211.00;;;8.49;78.88
20930;BME280;21895;47.072;15.132;2022-10-31T03:26:07;97209.00;;;8.49;77.75
20930;BME280;21895;47.072;15.132;2022-10-31T03:28:47;97213.00;;;8.37;78.36
20930;BME280;21895;47.072;15.132;2022-10-31T03:31:19;97222.00;;;8.29;80.19
20930;BME280;21895;47.072;15.132;2022-10-31T03:33:51;97216.00;;;8.33;80.34
20930;BME280;21895;47.072;15.132;2022-10-31T03:36:20;97217.00;;;8.45;79.48
20930;BME280;21895;47.072;15.132;2022-10-31T03:38:47;97223.00;;;8.43;79.28
20930;BME280;21895;47.072;15.132;2022-10-31T03:41:23;97220.00;;;8.26;78.88
20930;BME280;21895;47.072;15.132;2022-10-31T03:44:01;97220.00;;;8.14;79.77
20930;BME280;21895;47.072;15.132;2022-10-31T03:46:30;97229.00;;;8.23;80.18
20930;BME280;21895;47.072;15.132;2022-10-31T03:48:58;97223.00;;;8.43;79.11
20930;BME280;21895;47.072;15.132;2022-10-31T03:55:33;97225.00;;;8.37;80.21
20930;BME280;21895;47.072;15.132;2022-10-31T03:58:19;97227.00;;;8.22;79.20
20930;BME280;21895;47.072;15.132;2022-10-31T04:00:48;97217.00;;;8.07;79.24
20930;BME280;21895;47.072;15.132;2022-10-31T04:03:28;97227.00;;;8.07;79.26
20930;BME280;21895;47.072;15.132;2022-10-31T04:06:03;97232.00;;;8.04;79.62
20930;BME280;21895;47.072;15.132;2022-10-31T04:08:33;97218.00;;;8.12;78.45
20930;BME280;21895;47.072;15.132;2022-10-31T04:11:06;97220.00;;;8.08;79.55
20930;BME280;21895;47.072;15.132;2022-10-31T04:13:39;97223.00;;;8.19;79.81
20930;BME280;21895;47.072;15.132;2022-10-31T04:16:08;97227.00;;;8.19;79.60
20930;BME280;21895;47.072;15.132;2022-10-31T04:18:42;97225.00;;;8.19;80.39
20930;BME280;21895;47.072;15.132;2022-10-31T04:21:08;97227.00;;;8.25;80.85
20930;BME280;21895;47.072;15.132;2022-10-31T04:23:36;97229.00;;;8.30;79.36
20930;BME280;21895;47.072;15.132;2022-10-31T04:26:02;97229.00;;;8.25;78.81
20930;BME280;21895;47.072;15.132;2022-10-31T04:28:29;97226.00;;;8.15;77.67
20930;BME280;21895;47.072;15.132;2022-10-31T04:30:55;97225.00;;;8.02;78.10
20930;BME280;21895;47.072;15.132;2022-10-31T04:33:22;97231.00;;;8.01;77.98
20930;BME280;21895;47.072;15.132;2022-10-31T04:35:48;97221.00;;;7.95;78.01
20930;BME280;21895;47.072;15.132;2022-10-31T04:38:15;97225.00;;;7.94;78.48
20930;BME280;21895;47.072;15.132;2022-10-31T04:40:41;97221.00;;;8.00;78.42
20930;BME280;21895;47.072;15.132;2022-10-31T04:43:08;97222.00;;;7.94;78.42
20930;BME280;21895;47.072;15.132;2022-10-31T04:45:35;97228.00;;;7.91;78.89
20930;BME280;21895;47.072;15.132;2022-10-31T04:48:01;97225.00;;;7.99;78.71
20930;BME280;21895;47.072;15.132;2022-10-31T04:50:28;97224.00;;;8.04;79.36
20930;BME280;21895;47.072;15.132;2022-10-31T04:52:55;97219.00;;;8.11;77.28
20930;BME280;21895;47.072;15.132;2022-10-31T04:55:21;97222.00;;;8.09;78.84
20930;BME280;21895;47.072;15.132;2022-10-31T04:57:49;97215.00;;;8.10;80.71
20930;BME280;21895;47.072;15.132;2022-10-31T05:00:20;97220.00;;;8.14;79.35
20930;BME280;21895;47.072;15.132;2022-10-31T05:02:52;97227.00;;;7.97;79.01
20930;BME280;21895;47.072;15.132;2022-10-31T05:05:22;97224.00;;;7.99;78.63
20930;BME280;21895;47.072;15.132;2022-10-31T05:07:50;97221.00;;;7.85;78.39
20930;BME280;21895;47.072;15.132;2022-10-31T05:10:21;97219.00;;;7.84;79.92
20930;BME280;21895;47.072;15.132;2022-10-31T05:12:54;97226.00;;;8.02;78.62
20930;BME280;21895;47.072;15.132;2022-10-31T05:15:23;97226.00;;;7.85;78.11
20930;BME280;21895;47.072;15.132;2022-10-31T05:17:50;97226.00;;;7.77;78.73
20930;BME280;21895;47.072;15.132;2022-10-31T05:20:20;97218.00;;;7.67;79.07
20930;BME280;21895;47.072;15.132;2022-10-31T05:22:53;97227.00;;;7.72;79.36
20930;BME280;21895;47.072;15.132;2022-10-31T05:25:22;97230.00;;;7.69;80.32
20930;BME280;21895;47.072;15.132;2022-10-31T05:27:51;97227.00;;;7.86;79.65
20930;BME280;21895;47.072;15.132;2022-10-31T05:30:32;97230.00;;;7.96;79.78
20930;BME280;21895;47.072;15.132;2022-10-31T05:33:00;97220.00;;;7.91;79.79
20930;BME280;21895;47.072;15.132;2022-10-31T05:35:30;97229.00;;;7.89;80.57
20930;BME280;21895;47.072;15.132;2022-10-31T05:37:57;97230.00;;;7.79;80.15
20930;BME280;21895;47.072;15.132;2022-10-31T05:40:26;97227.00;;;7.84;80.74
20930;BME280;21895;47.072;15.132;2022-10-31T05:42:55;97230.00;;;7.88;80.36
20930;BME280;21895;47.072;15.132;2022-10-31T05:45:23;97230.00;;;7.98;80.57
20930;BME280;21895;47.072;15.132;2022-10-31T05:47:58;97227.00;;;8.02;79.01
20930;BME280;21895;47.072;15.132;2022-10-31T05:50:28;97232.00;;;7.99;80.02
20930;BME280;21895;47.072;15.132;2022-10-31T05:53:04;97231.00;;;8.05;79.51
20930;BME280;21895;47.072;15.132;2022-10-31T05:55:32;97230.00;;;8.11;79.78
20930;BME280;21895;47.072;15.132;2022-10-31T05:57:58;97232.00;;;8.22;78.17
20930;BME280;21895;47.072;15.132;2022-10-31T06:00:27;97233.00;;;8.09;78.71
20930;BME280;21895;47.072;15.132;2022-10-31T06:03:03;97232.00;;;8.22;79.00
20930;BME280;21895;47.072;15.132;2022-10-31T06:05:30;97233.00;;;8.19;77.86
20930;BME280;21895;47.072;15.132;2022-10-31T06:07:57;97230.00;;;8.20;77.24
20930;BME280;21895;47.072;15.132;2022-10-31T06:10:26;97241.00;;;8.07;77.93
20930;BME280;21895;47.072;15.132;2022-10-31T06:12:53;97234.00;;;8.06;79.14
20930;BME280;21895;47.072;15.132;2022-10-31T06:15:19;97239.00;;;8.13;79.07
20930;BME280;21895;47.072;15.132;2022-10-31T06:18:04;97238.00;;;8.24;79.50
20930;BME280;21895;47.072;15.132;2022-10-31T06:20:33;97237.00;;;8.23;79.41
20930;BME280;21895;47.072;15.132;2022-10-31T06:23:00;97243.00;;;8.30;79.96
20930;BME280;21895;47.072;15.132;2022-10-31T06:25:27;97246.00;;;8.39;78.96
20930;BME280;21895;47.072;15.132;2022-10-31T06:27:55;97249.00;;;8.54;78.09
20930;BME280;21895;47.072;15.132;2022-10-31T06:30:21;97256.00;;;8.50;78.42
20930;BME280;21895;47.072;15.132;2022-10-31T06:32:48;97252.00;;;8.54;78.87
20930;BME280;21895;47.072;15.132;2022-10-31T06:35:15;97245.00;;;8.75;78.33
20930;BME280;21895;47.072;15.132;2022-10-31T06:37:42;97248.00;;;8.67;78.67
20930;BME280;21895;47.072;15.132;2022-10-31T06:40:12;97254.00;;;8.84;78.67
20930;BME280;21895;47.072;15.132;2022-10-31T06:42:39;97254.00;;;8.95;78.47
20930;BME280;21895;47.072;15.132;2022-10-31T06:45:06;97249.00;;;8.94;79.25
20930;BME280;21895;47.072;15.132;2022-10-31T06:47:33;97253.00;;;9.11;79.35
20930;BME280;21895;47.072;15.132;2022-10-31T06:50:11;97255.00;;;9.21;79.58
20930;BME280;21895;47.072;15.132;2022-10-31T06:52:38;97254.00;;;9.29;80.11
20930;BME280;21895;47.072;15.132;2022-10-31T06:55:05;97253.00;;;9.48;80.31
20930;BME280;21895;47.072;15.132;2022-10-31T06:57:31;97255.00;;;9.72;79.58
20930;BME280;21895;47.072;15.132;2022-10-31T06:59:58;97257.00;;;9.70;79.61
20930;BME280;21895;47.072;15.132;2022-10-31T07:02:24;97268.00;;;9.77;80.30
20930;BME280;21895;47.072;15.132;2022-10-31T07:04:51;97259.00;;;9.98;82.03
20930;BME280;21895;47.072;15.132;2022-10-31T07:07:17;97265.00;;;10.20;81.99
20930;BME280;21895;47.072;15.132;2022-10-31T07:09:44;97263.00;;;10.39;81.09
20930;BME280;21895;47.072;15.132;2022-10-31T07:12:10;97264.00;;;10.51;80.67
20930;BME280;21895;47.072;15.132;2022-10-31T07:14:37;97262.00;;;10.60;80.33
20930;BME280;21895;47.072;15.132;2022-10-31T07:17:03;97260.00;;;10.72;80.32
20930;BME280;21895;47.072;15.132;2022-10-31T07:19:30;97272.00;;;10.82;79.71
20930;BME280;21895;47.072;15.132;2022-10-31T07:21:57;97274.00;;;10.97;79.12
20930;BME280;21895;47.072;15.132;2022-10-31T07:24:23;97275.00;;;11.09;78.26
20930;BME280;21895;47.072;15.132;2022-10-31T07:26:50;97280.00;;;11.31;77.92
20930;BME280;21895;47.072;15.132;2022-10-31T07:29:16;97273.00;;;11.43;77.34
20930;BME280;21895;47.072;15.132;2022-10-31T07:31:45;97273.00;;;11.57;76.93
20930;BME280;21895;47.072;15.132;2022-10-31T07:34:12;97273.00;;;11.70;76.51
20930;BME280;21895;47.072;15.132;2022-10-31T07:36:39;97273.00;;;11.67;76.20
20930;BME280;21895;47.072;15.132;2022-10-31T07:39:05;97266.00;;;11.67;75.86
20930;BME280;21895;47.072;15.132;2022-10-31T07:41:32;97271.00;;;11.72;75.82
20930;BME280;21895;47.072;15.132;2022-10-31T07:43:58;97277.00;;;11.98;76.08
20930;BME280;21895;47.072;15.132;2022-10-31T07:46:25;97275.00;;;12.04;76.35
20930;BME280;21895;47.072;15.132;2022-10-31T07:48:51;97270.00;;;12.08;76.41
20930;BME280;21895;47.072;15.132;2022-10-31T07:51:18;97281.00;;;12.16;76.12
20930;BME280;21895;47.072;15.132;2022-10-31T07:53:45;97268.00;;;12.42;75.42
20930;BME280;21895;47.072;15.132;2022-10-31T07:56:11;97276.00;;;12.46;75.14
20930;BME280;21895;47.072;15.132;2022-10-31T07:58:38;97278.00;;;12.53;75.19
20930;BME280;21895;47.072;15.132;2022-10-31T08:01:04;97271.00;;;12.58;75.43
20930;BME280;21895;47.072;15.132;2022-10-31T08:03:31;97270.00;;;12.75;75.50
20930;BME280;21895;47.072;15.132;2022-10-31T08:05:58;97273.00;;;12.97;74.98
20930;BME280;21895;47.072;15.132;2022-10-31T08:08:24;97271.00;;;13.13;74.02
20930;BME280;21895;47.072;15.132;2022-10-31T08:10:54;97274.00;;;13.36;73.81
20930;BME280;21895;47.072;15.132;2022-10-31T08:13:21;97278.00;;;13.62;73.04
20930;BME280;21895;47.072;15.132;2022-10-31T08:15:47;97273.00;;;13.59;72.64
20930;BME280;21895;47.072;15.132;2022-10-31T08:18:16;97276.00;;;13.89;72.42
20930;BME280;21895;47.072;15.132;2022-10-31T08:20:43;97277.00;;;14.12;71.34
20930;BME280;21895;47.072;15.132;2022-10-31T08:23:12;97270.00;;;14.45;70.90
20930;BME280;21895;47.072;15.132;2022-10-31T08:25:39;97274.00;;;14.72;70.25
20930;BME280;21895;47.072;15.132;2022-10-31T08:28:09;97272.00;;;14.91;69.49
20930;BME280;21895;47.072;15.132;2022-10-31T08:30:37;97269.00;;;14.94;70.58
20930;BME280;21895;47.072;15.132;2022-10-31T08:33:16;97272.00;;;15.46;68.82
20930;BME280;21895;47.072;15.132;2022-10-31T08:35:43;97270.00;;;15.39;69.13
20930;BME280;21895;47.072;15.132;2022-10-31T08:38:12;97270.00;;;15.62;68.56
20930;BME280;21895;47.072;15.132;2022-10-31T08:40:38;97265.00;;;15.94;67.11
20930;BME280;21895;47.072;15.132;2022-10-31T08:43:14;97265.00;;;16.02;67.01
20930;BME280;21895;47.072;15.132;2022-10-31T08:45:42;97264.00;;;16.06;65.55
20930;BME280;21895;47.072;15.132;2022-10-31T08:48:13;97262.00;;;16.09;65.70
20930;BME280;21895;47.072;15.132;2022-10-31T08:50:40;97265.00;;;16.35;65.16
20930;BME280;21895;47.072;15.132;2022-10-31T08:53:12;97260.00;;;16.56;64.35
20930;BME280;21895;47.072;15.132;2022-10-31T08:55:41;97261.00;;;16.58;64.09
20930;BME280;21895;47.072;15.132;2022-10-31T08:58:13;97258.00;;;16.78;64.13
20930;BME280;21895;47.072;15.132;2022-10-31T09:00:40;97267.00;;;16.87;63.22
20930;BME280;21895;47.072;15.132;2022-10-31T09:03:11;97264.00;;;16.97;63.48
20930;BME280;21895;47.072;15.132;2022-10-31T09:05:39;97263.00;;;17.08;62.83
20930;BME280;21895;47.072;15.132;2022-10-31T09:08:07;97265.00;;;17.20;62.79
20930;BME280;21895;47.072;15.132;2022-10-31T09:10:42;97260.00;;;17.39;62.81
20930;BME280;21895;47.072;15.132;2022-10-31T09:13:19;97265.00;;;17.45;62.37
20930;BME280;21895;47.072;15.132;2022-10-31T09:15:48;97257.00;;;17.52;62.24
20930;BME280;21895;47.072;15.132;2022-10-31T09:18:18;97265.00;;;17.62;61.80
20930;BME280;21895;47.072;15.132;2022-10-31T09:20:47;97262.00;;;17.70;61.20
20930;BME280;21895;47.072;15.132;2022-10-31T09:23:20;97259.00;;;17.82;61.27
20930;BME280;21895;47.072;15.132;2022-10-31T09:25:48;97262.00;;;17.89;60.69
20930;BME280;21895;47.072;15.132;2022-10-31T09:28:20;97256.00;;;18.05;60.27
20930;BME280;21895;47.072;15.132;2022-10-31T09:30:54;97260.00;;;18.20;58.96
20930;BME280;21895;47.072;15.132;2022-10-31T09:33:20;97252.00;;;18.22;58.64
20930;BME280;21895;47.072;15.132;2022-10-31T09:35:47;97261.00;;;18.27;59.18
20930;BME280;21895;47.072;15.132;2022-10-31T09:38:20;97261.00;;;18.36;59.72
20930;BME280;21895;47.072;15.132;2022-10-31T09:41:05;97263.00;;;18.41;59.00
20930;BME280;21895;47.072;15.132;2022-10-31T09:46:49;97254.00;;;18.43;59.06
20930;BME280;21895;47.072;15.132;2022-10-31T09:50:07;97263.00;;;18.57;58.50
20930;BME280;21895;47.072;15.132;2022-10-31T09:52:51;97257.00;;;18.74;59.30
20930;BME280;21895;47.072;15.132;2022-10-31T09:55:36;97257.00;;;18.86;59.39
20930;BME280;21895;47.072;15.132;2022-10-31T09:58:04;97263.00;;;18.88;59.10
20930;BME280;21895;47.072;15.132;2022-10-31T10:00:31;97251.00;;;18.97;59.56
20930;BME280;21895;47.072;15.132;2022-10-31T10:05:04;97250.00;;;18.94;59.37
20930;BME280;21895;47.072;15.132;2022-10-31T10:08:26;97257.00;;;19.22;58.49
20930;BME280;21895;47.072;15.132;2022-10-31T10:12:19;97260.00;;;19.42;58.26
20930;BME280;21895;47.072;15.132;2022-10-31T10:15:30;97251.00;;;19.52;58.83
20930;BME280;21895;47.072;15.132;2022-10-31T10:18:32;97252.00;;;19.51;59.36
20930;BME280;21895;47.072;15.132;2022-10-31T10:21:31;97249.00;;;19.43;59.10
20930;BME280;21895;47.072;15.132;2022-10-31T10:24:33;97248.00;;;19.53;58.49
20930;BME280;21895;47.072;15.132;2022-10-31T10:31:32;97232.00;;;19.81;56.74
20930;BME280;21895;47.072;15.132;2022-10-31T10:34:36;97240.00;;;19.86;57.06
20930;BME280;21895;47.072;15.132;2022-10-31T10:37:32;97229.00;;;19.86;57.47
20930;BME280;21895;47.072;15.132;2022-10-31T10:40:44;97231.00;;;19.82;59.06
20930;BME280;21895;47.072;15.132;2022-10-31T10:43:44;97232.00;;;19.93;58.45
20930;BME280;21895;47.072;15.132;2022-10-31T10:46:57;97237.00;;;19.99;57.91
20930;BME280;21895;47.072;15.132;2022-10-31T10:49:51;97229.00;;;19.99;58.04
20930;BME280;21895;47.072;15.132;2022-10-31T10:55:28;97232.00;;;20.01;58.23
20930;BME280;21895;47.072;15.132;2022-10-31T10:58:07;97220.00;;;20.38;57.36
20930;BME280;21895;47.072;15.132;2022-10-31T11:00:44;97222.00;;;20.29;57.39
20930;BME280;21895;47.072;15.132;2022-10-31T11:03:16;97211.00;;;20.35;57.18
20930;BME280;21895;47.072;15.132;2022-10-31T11:06:19;97209.00;;;20.31;57.15
20930;BME280;21895;47.072;15.132;2022-10-31T11:08:48;97210.00;;;20.42;57.38
20930;BME280;21895;47.072;15.132;2022-10-31T11:11:38;97210.00;;;20.51;56.67
20930;BME280;21895;47.072;15.132;2022-10-31T11:14:13;97205.00;;;20.66;56.40
20930;BME280;21895;47.072;15.132;2022-10-31T11:16:44;97203.00;;;20.51;56.96
20930;BME280;21895;47.072;15.132;2022-10-31T11:19:24;97202.00;;;20.44;56.96
20930;BME280;21895;47.072;15.132;2022-10-31T11:21:53;97202.00;;;20.59;56.94
20930;BME280;21895;47.072;15.132;2022-10-31T11:24:27;97203.00;;;20.60;56.86
20930;BME280;21895;47.072;15.132;2022-10-31T11:27:21;97195.00;;;20.91;55.80
20930;BME280;21895;47.072;15.132;2022-10-31T11:29:49;97198.00;;;20.57;56.58
20930;BME280;21895;47.072;15.132;2022-10-31T11:32:22;97188.00;;;20.71;56.13
20930;BME280;21895;47.072;15.132;2022-10-31T11:34:57;97185.00;;;20.81;56.16
20930;BME280;21895;47.072;15.132;2022-10-31T11:37:30;97174.00;;;20.75;56.00
20930;BME280;21895;47.072;15.132;2022-10-31T11:40:03;97185.00;;;20.74;56.35
20930;BME280;21895;47.072;15.132;2022-10-31T11:42:40;97185.00;;;20.72;56.70
20930;BME280;21895;47.072;15.132;2022-10-31T11:45:27;97169.00;;;20.74;56.96
20930;BME280;21895;47.072;15.132;2022-10-31T11:47:57;97170.00;;;20.71;56.87
20930;BME280;21895;47.072;15.132;2022-10-31T11:50:39;97167.00;;;20.77;56.91
20930;BME280;21895;47.072;15.132;2022-10-31T11:53:36;97165.00;;;20.82;56.73
20930;BME280;21895;47.072;15.132;2022-10-31T11:56:21;97162.00;;;21.09;55.49
20930;BME280;21895;47.072;15.132;2022-10-31T11:59:04;97160.00;;;21.03;55.58
20930;BME280;21895;47.072;15.132;2022-10-31T12:01:32;97160.00;;;20.94;56.01
20930;BME280;21895;47.072;15.132;2022-10-31T12:04:17;97165.00;;;20.94;56.14
20930;BME280;21895;47.072;15.132;2022-10-31T12:06:45;97157.00;;;21.26;55.42
20930;BME280;21895;47.072;15.132;2022-10-31T12:09:33;97160.00;;;21.39;54.78
20930;BME280;21895;47.072;15.132;2022-10-31T12:12:52;97156.00;;;21.30;54.92
20930;BME280;21895;47.072;15.132;2022-10-31T12:16:53;97160.00;;;21.23;54.64
20930;BME280;21895;47.072;15.132;2022-10-31T12:22:05;97149.00;;;21.08;54.24
20930;BME280;21895;47.072;15.132;2022-10-31T12:30:28;97146.00;;;21.30;53.46
20930;BME280;21895;47.072;15.132;2022-10-31T12:33:29;97142.00;;;21.36;53.27
20930;BME280;21895;47.072;15.132;2022-10-31T12:41:08;97139.00;;;21.34;53.83
20930;BME280;21895;47.072;15.132;2022-10-31T12:44:05;97135.00;;;21.25;53.78
20930;BME280;21895;47.072;15.132;2022-10-31T12:57:00;97135.00;;;21.23;53.32
20930;BME280;21895;47.072;15.132;2022-10-31T12:59:56;97136.00;;;21.31;52.02
20930;BME280;21895;47.072;15.132;2022-10-31T13:04:12;97137.00;;;21.17;52.58
20930;BME280;21895;47.072;15.132;2022-10-31T13:06:53;97136.00;;;21.20;52.24
20930;BME280;21895;47.072;15.132;2022-10-31T13:09:48;97132.00;;;21.18;52.47
20930;BME280;21895;47.072;15.132;2022-10-31T13:12:21;97129.00;;;21.14;52.22
20930;BME280;21895;47.072;15.132;2022-10-31T13:15:27;97129.00;;;21.09;52.36
20930;BME280;21895;47.072;15.132;2022-10-31T13:18:12;97134.00;;;21.05;52.21
20930;BME280;21895;47.072;15.132;2022-10-31T13:20:45;97124.00;;;21.03;52.10
20930;BME280;21895;47.072;15.132;2022-10-31T13:23:34;97119.00;;;20.99;51.94
20930;BME280;21895;47.072;15.132;2022-10-31T13:26:46;97117.00;;;21.03;52.84
20930;BME280;21895;47.072;15.132;2022-10-31T13:31:06;97126.00;;;21.09;51.97
20930;BME280;21895;47.072;15.132;2022-10-31T13:33:46;97126.00;;;21.09;52.20
20930;BME280;21895;47.072;15.132;2022-10-31T13:37:11;97126.00;;;21.09;52.83
20930;BME280;21895;47.072;15.132;2022-10-31T13:41:30;97121.00;;;21.33;50.75
20930;BME280;21895;47.072;15.132;2022-10-31T13:44:25;97113.00;;;21.11;51.06
20930;BME280;21895;47.072;15.132;2022-10-31T13:46:55;97118.00;;;20.93;52.12
20930;BME280;21895;47.072;15.132;2022-10-31T13:55:38;97115.00;;;20.85;52.92
20930;BME280;21895;47.072;15.132;2022-10-31T13:58:25;97119.00;;;20.70;53.50
20930;BME280;21895;47.072;15.132;2022-10-31T14:01:19;97123.00;;;20.72;53.78
20930;BME280;21895;47.072;15.132;2022-10-31T14:04:03;97121.00;;;20.85;53.01
20930;BME280;21895;47.072;15.132;2022-10-31T14:07:41;97107.00;;;20.80;53.07
20930;BME280;21895;47.072;15.132;2022-10-31T14:11:01;97113.00;;;20.65;54.32
20930;BME280;21895;47.072;15.132;2022-10-31T14:13:43;97118.00;;;20.57;54.78
20930;BME280;21895;47.072;15.132;2022-10-31T14:18:06;97115.00;;;20.44;55.81
20930;BME280;21895;47.072;15.132;2022-10-31T14:20:44;97113.00;;;20.32;55.76
20930;BME280;21895;47.072;15.132;2022-10-31T14:23:35;97125.00;;;20.24;56.18
20930;BME280;21895;47.072;15.132;2022-10-31T14:26:38;97121.00;;;20.18;56.42
20930;BME280;21895;47.072;15.132;2022-10-31T14:30:16;97111.00;;;20.11;56.64
20930;BME280;21895;47.072;15.132;2022-10-31T14:32:44;97120.00;;;20.01;57.15
20930;BME280;21895;47.072;15.132;2022-10-31T14:35:15;97124.00;;;19.93;57.42
20930;BME280;21895;47.072;15.132;2022-10-31T14:38:26;97114.00;;;19.87;58.15
20930;BME280;21895;47.072;15.132;2022-10-31T14:41:30;97117.00;;;20.05;57.57
20930;BME280;21895;47.072;15.132;2022-10-31T14:50:41;97124.00;;;19.69;59.58
20930;BME280;21895;47.072;15.132;2022-10-31T14:53:26;97116.00;;;19.59;60.67
20930;BME280;21895;47.072;15.132;2022-10-31T14:55:56;97124.00;;;19.47;61.67
20930;BME280;21895;47.072;15.132;2022-10-31T14:58:42;97125.00;;;19.34;62.04